地図

経路データ

SID SEASON NUMBER BASIN SUBBASIN NAME ISO_TIME NATURE LAT LON WMO_WIND WMO_PRES WMO_AGENCY TRACK_TYPE DIST2LAND LANDFALL IFLAG USA_AGENCY USA_ATCF_ID USA_LAT USA_LON USA_RECORD USA_STATUS USA_WIND USA_PRES USA_SSHS USA_R34_NE USA_R34_SE USA_R34_SW USA_R34_NW USA_R50_NE USA_R50_SE USA_R50_SW USA_R50_NW USA_R64_NE USA_R64_SE USA_R64_SW USA_R64_NW USA_POCI USA_ROCI USA_RMW USA_EYE TOKYO_LAT TOKYO_LON TOKYO_GRADE TOKYO_WIND TOKYO_PRES TOKYO_R50_DIR TOKYO_R50_LONG TOKYO_R50_SHORT TOKYO_R30_DIR TOKYO_R30_LONG TOKYO_R30_SHORT TOKYO_LAND CMA_LAT CMA_LON CMA_CAT CMA_WIND CMA_PRES HKO_LAT HKO_LON HKO_CAT HKO_WIND HKO_PRES NEWDELHI_LAT NEWDELHI_LON NEWDELHI_GRADE NEWDELHI_WIND NEWDELHI_PRES NEWDELHI_CI NEWDELHI_DP NEWDELHI_POCI REUNION_LAT REUNION_LON REUNION_TYPE REUNION_WIND REUNION_PRES REUNION_TNUM REUNION_CI REUNION_RMW REUNION_R34_NE REUNION_R34_SE REUNION_R34_SW REUNION_R34_NW REUNION_R50_NE REUNION_R50_SE REUNION_R50_SW REUNION_R50_NW REUNION_R64_NE REUNION_R64_SE REUNION_R64_SW REUNION_R64_NW BOM_LAT BOM_LON BOM_TYPE BOM_WIND BOM_PRES BOM_TNUM BOM_CI BOM_RMW BOM_R34_NE BOM_R34_SE BOM_R34_SW BOM_R34_NW BOM_R50_NE BOM_R50_SE BOM_R50_SW BOM_R50_NW BOM_R64_NE BOM_R64_SE BOM_R64_SW BOM_R64_NW BOM_ROCI BOM_POCI BOM_EYE BOM_POS_METHOD BOM_PRES_METHOD NADI_LAT NADI_LON NADI_CAT NADI_WIND NADI_PRES WELLINGTON_LAT WELLINGTON_LON WELLINGTON_WIND WELLINGTON_PRES DS824_LAT DS824_LON DS824_STAGE DS824_WIND DS824_PRES TD9636_LAT TD9636_LON TD9636_STAGE TD9636_WIND TD9636_PRES TD9635_LAT TD9635_LON TD9635_WIND TD9635_PRES TD9635_ROCI NEUMANN_LAT NEUMANN_LON NEUMANN_CLASS NEUMANN_WIND NEUMANN_PRES MLC_LAT MLC_LON MLC_CLASS MLC_WIND MLC_PRES USA_GUST BOM_GUST BOM_GUST_PER REUNION_GUST REUNION_GUST_PER USA_SEAHGT USA_SEARAD_NE USA_SEARAD_SE USA_SEARAD_SW USA_SEARAD_NW STORM_SPEED STORM_DIR
1987230N25136 1987 60 WP MM NOT_NAMED 1987-08-18 00:00:00 TS 25.0000 136.000 main 844 825 __O___________ -1 25.0000 136.000 1 23 1008 5 353
1987230N25136 1987 60 WP MM NOT_NAMED 1987-08-18 03:00:00 TS 25.2325 135.990 main 825 797 __P___________ -1 25.2325 135.990 1 23 1008 5 2
1987230N25136 1987 60 WP MM NOT_NAMED 1987-08-18 06:00:00 TS 25.5000 136.000 main 797 769 __O___________ -1 25.5000 136.000 1 23 1008 6 3
1987230N25136 1987 60 WP MM NOT_NAMED 1987-08-18 09:00:00 TS 25.8275 136.042 main 769 738 __P___________ -1 25.8275 136.042 1 23 1007 7 7
1987230N25136 1987 60 WP MM NOT_NAMED 1987-08-18 12:00:00 TS 26.2000 136.100 main 738 703 __O___________ -1 26.2000 136.100 1 23 1006 8 6
1987230N25136 1987 60 WP MM NOT_NAMED 1987-08-18 15:00:00 TS 26.6000 136.135 main 703 676 __P___________ -1 26.6000 136.135 1 23 1006 8 6
1987230N25136 1987 60 WP MM NOT_NAMED 1987-08-18 18:00:00 TS 27.0000 136.200 main 676 658 __O___________ -1 27.0000 136.200 1 23 1006 8 13
1987230N25136 1987 60 WP MM NOT_NAMED 1987-08-18 21:00:00 TS 27.3500 136.328 main 658 639 __P___________ -1 27.3500 136.328 1 26 1005 8 21
1987230N25136 1987 60 WP MM NOT_NAMED 1987-08-19 00:00:00 TS 27.7000 136.500 main 639 597 __O___________ -1 27.7000 136.500 1 29 1004 8 24
1987230N25136 1987 60 WP MM NOT_NAMED 1987-08-19 03:00:00 TS 28.0925 136.700 main 597 556 __P___________ -1 28.0925 136.700 1 29 1004 9 24
1987230N25136 1987 60 WP MM NOT_NAMED 1987-08-19 06:00:00 TS 28.5000 136.900 main 556 514 __O___________ -1 28.5000 136.900 1 29 1004 8 20
1987230N25136 1987 60 WP MM NOT_NAMED 1987-08-19 09:00:00 TS 28.8848 137.021 main 514 476 __P___________ -1 28.8848 137.021 1 29 1004 8 18
1987230N25136 1987 60 WP MM NOT_NAMED 1987-08-19 12:00:00 TS 29.3000 137.200 main 476 436 __O___________ -1 29.3000 137.200 1 29 1004 10 28
1987230N25136 1987 60 WP MM NOT_NAMED 1987-08-19 15:00:00 TS 29.7928 137.577 main 436 403 __P___________ -1 29.7928 137.577 1 29 1004 12 35
1987230N25136 1987 60 WP MM NOT_NAMED 1987-08-19 18:00:00 TS 30.3000 138.000 main 403 373 __O___________ -1 30.3000 138.000 1 29 1004 12 32
1987230N25136 1987 60 WP MM NOT_NAMED 1987-08-19 21:00:00 TS 30.8022 138.300 main 373 359 __P___________ -1 30.8022 138.300 1 29 1004 10 30
1987230N25136 1987 60 WP MM NOT_NAMED 1987-08-20 00:00:00 TS 31.2000 138.600 main 359 356 __O___________ -1 31.2000 138.600 1 29 1004 8 43
1987230N25136 1987 60 WP MM NOT_NAMED 1987-08-20 03:00:00 TS 31.4098 138.963 main 357 346 __P___________ -1 31.4098 138.963 1 29 1004 7 66
1987230N25136 1987 60 WP MM NOT_NAMED 1987-08-20 06:00:00 TS 31.5000 139.400 main 350 344 __O___________ -1 31.5000 139.400 1 29 1004 8 79
1987230N25136 1987 60 WP MM NOT_NAMED 1987-08-20 09:00:00 TS 31.5726 139.935 main 349 349 __P___________ -1 31.5726 139.935 1 29 1004 9 84
1987230N25136 1987 60 WP MM NOT_NAMED 1987-08-20 12:00:00 TS 31.6000 140.500 main 369 369 __O___________ -1 31.6000 140.500 1 29 1004 9 87
1987230N25136 1987 60 WP MM NOT_NAMED 1987-08-20 15:00:00 TS 31.6219 140.985 main 381 381 __P___________ -1 31.6219 140.985 1 26 1005 9 90
1987230N25136 1987 60 WP MM NOT_NAMED 1987-08-20 18:00:00 TS 31.6000 141.500 main 396 396 __O___________ -1 31.6000 141.500 1 23 1006 10 96
1987230N25136 1987 60 WP MM NOT_NAMED 1987-08-20 21:00:00 TS 31.5185 142.118 main 430 430 __P___________ -1 31.5185 142.118 1 21 1006 11 100
1987230N25136 1987 60 WP MM NOT_NAMED 1987-08-21 00:00:00 TS 31.4000 142.800 main 474 __O___________ -1 31.4000 142.800 0 19 1006 12 102

デジタル台風データ・検索

IBTrACS Databaseについて

本データベースは、米国NOAAが公開する1842年以降の世界の熱帯低気圧のベストトラックデータアーカイブInternational Best Track Archive for Climate Stewardship (IBTrACS)を、ウェブで閲覧しやすい形式に変換したものです。

最終更新日:2021-11-26